Darya Krishna — VRQT9 — position and weather

sailwx.info

Track history (hours):
 
Tides and Currents Weather Stations Pressure Air Temp Water Temp Dewpoint Dewpoint Depression Visibility Wind Speed Wind Dir Waves Ship Positions

Darya Krishna

Last reported at 2018-May-06 00:31 UTC. Time now 2018-May-22 18:01 UTC.
Position S 05°57' E 112°11'.
Warning: this ship's position is 16 days out of date.

Length 180 m; draft 6.2 m.

Type: Cargo ship. MMSI: 477045400.

Date/timePositionNaut miles runAvg speedWind from/ knotsBaromVisibWave heightAir tempDewpointWater temp
2018-May-06 00:31S 05°57' E 112°11'512.7
2018-May-06 00:07S 05°55' E 112°06'212.5
2018-May-05 23:59S 05°54' E 112°05'1512.6
2018-May-05 22:49S 05°49' E 111°51'512.7
2018-May-05 22:26S 05°48' E 111°46'2112.6
2018-May-05 20:44S 05°43' E 111°25'312.6
2018-May-05 20:28S 05°42' E 111°22'612.7
2018-May-05 20:00S 05°41' E 111°16'612.6
2018-May-05 19:30S 05°40' E 111°10'612.6
2018-May-05 19:00S 05°39' E 111°04'612.6
2018-May-05 18:30S 05°38' E 110°57'612.6
2018-May-05 18:00S 05°38' E 110°51'612.4
2018-May-05 17:30S 05°37' E 110°45'612.4
2018-May-05 17:00S 05°37' E 110°39'612.3
2018-May-05 16:29S 05°37' E 110°32'612.4
2018-May-05 16:00S 05°37' E 110°26'612.3
2018-May-05 15:30S 05°36' E 110°20'712.3
2018-May-05 14:59S 05°36' E 110°14'612.3
2018-May-05 14:30S 05°36' E 110°08'612.2
2018-May-05 14:00S 05°37' E 110°02'612.3
2018-May-05 13:30S 05°37' E 109°55'612.1
2018-May-05 13:00S 05°37' E 109°49'812.3
2018-May-05 12:21S 05°37' E 109°41'512.3
2018-May-05 11:57S 05°37' E 109°36'512.4
2018-May-05 11:30S 05°37' E 109°31'612.4
2018-May-05 11:00S 05°37' E 109°25'612.4
2018-May-05 10:30S 05°37' E 109°18'612.2
2018-May-05 09:59S 05°37' E 109°12'612.2
2018-May-05 09:30S 05°37' E 109°06'612.1
2018-May-05 09:00S 05°37' E 109°00'611.9
2018-May-05 08:30S 05°37' E 108°54'611.8
2018-May-05 08:00S 05°37' E 108°48'611.9
2018-May-05 07:30S 05°37' E 108°42'612.1
2018-May-05 07:00S 05°37' E 108°36'612.1
2018-May-05 06:30S 05°37' E 108°30'612.1
2018-May-05 06:00S 05°37' E 108°24'612.1
2018-May-05 05:29S 05°37' E 108°18'612.4
2018-May-05 04:59S 05°37' E 108°11'612.3
2018-May-05 04:30S 05°37' E 108°05'612.5
2018-May-05 04:00S 05°38' E 107°59'123 2.9
2018-May-03 10:00S 06°01' E 105°57'0 0.0
2018-May-03 09:30S 06°01' E 105°57'0 0.0
2018-May-03 09:00S 06°01' E 105°57'63 1.4
2018-May-01 10:57S 05°34' E 106°55'613.1
2018-May-01 10:30S 05°28' E 106°57'813.1
2018-May-01 09:53S 05°20' E 106°59'912.9
2018-May-01 09:12S 05°12' E 107°02'412.7
2018-May-01 08:52S 05°08' E 107°03'512.6
2018-May-01 08:28S 05°03' E 107°04'612.5
2018-May-01 08:00S 04°57' E 107°05'612.4
2018-May-01 07:30S 04°51' E 107°07'1012.2
2018-May-01 06:41S 04°41' E 107°08'212.1
2018-May-01 06:30S 04°39' E 107°09'10011.9
2018-Apr-30 22:07S 02°59' E 107°18'30111.6
2018-Apr-29 20:11N 01°31' E 105°08'311.2
2018-Apr-29 19:55N 01°33' E 105°05'4112.3
2018-Apr-29 16:34N 01°22' E 104°25'412.3
2018-Apr-29 16:14N 01°19' E 104°22'311.9
2018-Apr-29 16:00N 01°17' E 104°20'611.8
2018-Apr-29 15:29N 01°16' E 104°14'510.2
2018-Apr-29 15:00N 01°16' E 104°09'4 9.1
2018-Apr-29 14:30N 01°15' E 104°04'3 6.0
2018-Apr-29 13:59N 01°18' E 104°03'0 0.3
2018-Apr-29 12:52N 01°18' E 104°03'0 0.0
2018-Apr-29 12:25N 01°18' E 104°03'0 0.1
2018-Apr-29 11:43N 01°18' E 104°03'0 0.0
2018-Apr-29 11:25N 01°18' E 104°03'0 0.1
2018-Apr-29 10:47N 01°18' E 104°03'0 0.2
2018-Apr-29 10:28N 01°18' E 104°03'0 0.0
2018-Apr-29 09:59N 01°18' E 104°03'0 0.0
2018-Apr-29 09:22N 01°18' E 104°03'0 0.2
2018-Apr-29 08:58N 01°18' E 104°03'0 0.0
2018-Apr-29 08:29N 01°18' E 104°03'0 0.1
2018-Apr-29 07:56N 01°18' E 104°03'0 0.1
2018-Apr-29 07:19N 01°18' E 104°03'0 0.0
2018-Apr-29 06:59N 01°18' E 104°03'0 0.0
2018-Apr-29 06:23N 01°18' E 104°03'0 0.1
2018-Apr-29 05:56N 01°18' E 104°03'0 0.3
2018-Apr-29 05:23N 01°18' E 104°03'0 0.1
2018-Apr-29 04:53N 01°18' E 104°03'0 0.0
2018-Apr-29 04:28N 01°18' E 104°03'1 1.8
2018-Apr-29 03:58N 01°17' E 104°03'3 6.6
2018-Apr-29 03:29N 01°17' E 104°07'2 3.6
2018-Apr-29 02:59N 01°17' E 104°08'2 5.0
2018-Apr-29 02:30N 01°17' E 104°11'3 5.7
2018-Apr-29 01:58N 01°17' E 104°14'3 6.0
2018-Apr-29 01:30N 01°18' E 104°17'5 7.6
2018-Apr-29 00:53N 01°20' E 104°21'4 9.0
2018-Apr-29 00:29N 01°22' E 104°24'611.8
2018-Apr-28 23:59N 01°26' E 104°28'  
Track history (hours):
 
Tides and Currents Weather Stations Pressure Air Temp Water Temp Dewpoint Dewpoint Depression Visibility Wind Speed Wind Dir Waves Ship Positions

Darya Krishna

Last reported at 2018-May-06 00:31 UTC. Time now 2018-May-22 18:01 UTC.
Position S 05°57' E 112°11'.
Warning: this ship's position is 16 days out of date.

Length 180 m; draft 6.2 m.

Type: Cargo ship. MMSI: 477045400.

Date/timePositionNaut miles runAvg speedWind from/ knotsBaromVisibWave heightAir tempDewpointWater temp
2018-May-06 00:31S 05°57' E 112°11'512.7
2018-May-06 00:07S 05°55' E 112°06'212.5
2018-May-05 23:59S 05°54' E 112°05'1512.6
2018-May-05 22:49S 05°49' E 111°51'512.7
2018-May-05 22:26S 05°48' E 111°46'2112.6
2018-May-05 20:44S 05°43' E 111°25'312.6
2018-May-05 20:28S 05°42' E 111°22'612.7
2018-May-05 20:00S 05°41' E 111°16'612.6
2018-May-05 19:30S 05°40' E 111°10'612.6
2018-May-05 19:00S 05°39' E 111°04'612.6
2018-May-05 18:30S 05°38' E 110°57'612.6
2018-May-05 18:00S 05°38' E 110°51'612.4
2018-May-05 17:30S 05°37' E 110°45'612.4
2018-May-05 17:00S 05°37' E 110°39'612.3
2018-May-05 16:29S 05°37' E 110°32'612.4
2018-May-05 16:00S 05°37' E 110°26'612.3
2018-May-05 15:30S 05°36' E 110°20'712.3
2018-May-05 14:59S 05°36' E 110°14'612.3
2018-May-05 14:30S 05°36' E 110°08'612.2
2018-May-05 14:00S 05°37' E 110°02'612.3
2018-May-05 13:30S 05°37' E 109°55'612.1
2018-May-05 13:00S 05°37' E 109°49'812.3
2018-May-05 12:21S 05°37' E 109°41'512.3
2018-May-05 11:57S 05°37' E 109°36'512.4
2018-May-05 11:30S 05°37' E 109°31'612.4
2018-May-05 11:00S 05°37' E 109°25'612.4
2018-May-05 10:30S 05°37' E 109°18'612.2
2018-May-05 09:59S 05°37' E 109°12'612.2
2018-May-05 09:30S 05°37' E 109°06'612.1
2018-May-05 09:00S 05°37' E 109°00'611.9
2018-May-05 08:30S 05°37' E 108°54'611.8
2018-May-05 08:00S 05°37' E 108°48'611.9
2018-May-05 07:30S 05°37' E 108°42'612.1
2018-May-05 07:00S 05°37' E 108°36'612.1
2018-May-05 06:30S 05°37' E 108°30'612.1
2018-May-05 06:00S 05°37' E 108°24'612.1
2018-May-05 05:29S 05°37' E 108°18'612.4
2018-May-05 04:59S 05°37' E 108°11'612.3
2018-May-05 04:30S 05°37' E 108°05'612.5
2018-May-05 04:00S 05°38' E 107°59'123 2.9
2018-May-03 10:00S 06°01' E 105°57'0 0.0
2018-May-03 09:30S 06°01' E 105°57'0 0.0
2018-May-03 09:00S 06°01' E 105°57'63 1.4
2018-May-01 10:57S 05°34' E 106°55'613.1
2018-May-01 10:30S 05°28' E 106°57'813.1
2018-May-01 09:53S 05°20' E 106°59'912.9
2018-May-01 09:12S 05°12' E 107°02'412.7
2018-May-01 08:52S 05°08' E 107°03'512.6
2018-May-01 08:28S 05°03' E 107°04'612.5
2018-May-01 08:00S 04°57' E 107°05'612.4
2018-May-01 07:30S 04°51' E 107°07'1012.2
2018-May-01 06:41S 04°41' E 107°08'212.1
2018-May-01 06:30S 04°39' E 107°09'10011.9
2018-Apr-30 22:07S 02°59' E 107°18'30111.6
2018-Apr-29 20:11N 01°31' E 105°08'311.2
2018-Apr-29 19:55N 01°33' E 105°05'4112.3
2018-Apr-29 16:34N 01°22' E 104°25'412.3
2018-Apr-29 16:14N 01°19' E 104°22'311.9
2018-Apr-29 16:00N 01°17' E 104°20'611.8
2018-Apr-29 15:29N 01°16' E 104°14'510.2
2018-Apr-29 15:00N 01°16' E 104°09'4 9.1
2018-Apr-29 14:30N 01°15' E 104°04'3 6.0
2018-Apr-29 13:59N 01°18' E 104°03'0 0.3
2018-Apr-29 12:52N 01°18' E 104°03'0 0.0
2018-Apr-29 12:25N 01°18' E 104°03'0 0.1
2018-Apr-29 11:43N 01°18' E 104°03'0 0.0
2018-Apr-29 11:25N 01°18' E 104°03'0 0.1
2018-Apr-29 10:47N 01°18' E 104°03'0 0.2
2018-Apr-29 10:28N 01°18' E 104°03'0 0.0
2018-Apr-29 09:59N 01°18' E 104°03'0 0.0
2018-Apr-29 09:22N 01°18' E 104°03'0 0.2
2018-Apr-29 08:58N 01°18' E 104°03'0 0.0
2018-Apr-29 08:29N 01°18' E 104°03'0 0.1
2018-Apr-29 07:56N 01°18' E 104°03'0 0.1
2018-Apr-29 07:19N 01°18' E 104°03'0 0.0
2018-Apr-29 06:59N 01°18' E 104°03'0 0.0
2018-Apr-29 06:23N 01°18' E 104°03'0 0.1
2018-Apr-29 05:56N 01°18' E 104°03'0 0.3
2018-Apr-29 05:23N 01°18' E 104°03'0 0.1
2018-Apr-29 04:53N 01°18' E 104°03'0 0.0
2018-Apr-29 04:28N 01°18' E 104°03'1 1.8
2018-Apr-29 03:58N 01°17' E 104°03'3 6.6
2018-Apr-29 03:29N 01°17' E 104°07'2 3.6
2018-Apr-29 02:59N 01°17' E 104°08'2 5.0
2018-Apr-29 02:30N 01°17' E 104°11'3 5.7
2018-Apr-29 01:58N 01°17' E 104°14'3 6.0
2018-Apr-29 01:30N 01°18' E 104°17'5 7.6
2018-Apr-29 00:53N 01°20' E 104°21'4 9.0
2018-Apr-29 00:29N 01°22' E 104°24'611.8
2018-Apr-28 23:59N 01°26' E 104°28'  

Dump ship's entire track history